Sugar Land Regional Airport
KSGR : now visible

Airfield :











YOU CAN JOIN US ON...

 
LOGIN :

Register | Disclaimer

   EN    FR    IT 

 









Legend :    VFR   Marginal VFR   IFR   Intensive IFR   Very Intensive IFR
Visi :
Ceiling :
>= 8 km
>= 3000ft
5 to 8 km
1000 to 3000 ft
1500m to 5 km
500 to 1000 ft
800 to 1500m
200 to 500 ft
< 800m
< 200 ft
Symbols :   Thunderstorms  Fog  Heavy snow  Heavy precipitations  Wind > 20 kt






- Airport Elevation : 82 ft


KSGR - Sugar Land Regional

CURRENT METAR :
  • 050653Z AUTO 00000KT 10SM CLR 23/23 A2992 RMK AO2 SLP133 T02330233

EXPIRED METARs :
  • 050553Z AUTO 16003KT 10SM CLR 24/24 A2993 RMK AO2 SLP134 60000 T02440239 10300 20239 403390217 51017
  • 050453Z AUTO 19003KT 10SM CLR 26/24 A2992 RMK AO2 SLP133 T02560239

TAF KSGR
Valid from the 05 at 06:00 until the 06 at 06:00 UTC


050520Z 0506/0606 17005KT P6SM FEW020 FEW040
FM050900 VRB03KT 5SM BR SCT015 BKN030
TEMPO 0510/0513 2SM BR BKN009
FM051500 18004KT P6SM FEW020 SCT030
FM051900 14005KT P6SM VCSH SCT030 SCT080
FM060000 16005KT P6SM FEW030 SCT250
KZHU FIR / North America



MET'MAP, your aeronautical weather chart ! - Copyright ORBIFLY December 2007 - Disclaimer

ORBIFLY MET'MAP TEAM :

Programming & Development : Alexandra Zaïnal
Concept & original design : Baudouin d'Aumeries
Assistance for programming : Marc-Olivier Méhu
Technical & hardware support : Manuel Goepfert

Contact : metmap@orbifly.com




SOURCES & CREDITS :

   NOAA       Earth
Advisory